createdAt,value
2017-02-14T00:00:56.114Z,0
2017-02-14T00:01:56.402Z,0
2017-02-14T00:02:56.115Z,0
2017-02-14T00:03:56.062Z,0
2017-02-14T00:04:56.051Z,0
2017-02-14T00:05:56.088Z,0
2017-02-14T00:06:56.070Z,0
2017-02-14T00:07:56.065Z,0
2017-02-14T00:08:56.064Z,0
2017-02-14T00:09:56.127Z,0
2017-02-14T00:10:56.519Z,0
2017-02-14T00:11:56.346Z,0
2017-02-14T00:12:56.061Z,0
2017-02-14T00:13:56.073Z,0
2017-02-14T00:14:56.550Z,0
2017-02-14T00:15:56.319Z,0
2017-02-14T00:16:56.125Z,0
2017-02-14T00:17:56.126Z,0
2017-02-14T00:18:56.094Z,0
2017-02-14T00:19:56.507Z,0
2017-02-14T00:20:56.309Z,0
2017-02-14T00:21:56.067Z,0
2017-02-14T00:22:56.062Z,0
2017-02-14T00:23:56.101Z,0
2017-02-14T00:24:56.074Z,0
2017-02-14T00:25:56.078Z,0
2017-02-14T00:26:56.072Z,0
2017-02-14T00:27:56.052Z,0
2017-02-14T00:28:56.031Z,0
2017-02-14T00:29:56.062Z,0
2017-02-14T00:30:56.125Z,0
2017-02-14T00:31:56.050Z,0
2017-02-14T00:32:56.069Z,0
2017-02-14T00:33:56.075Z,0
2017-02-14T00:34:56.114Z,0
2017-02-14T00:35:56.096Z,0
2017-02-14T00:36:56.149Z,0
2017-02-14T00:37:56.287Z,0
2017-02-14T00:38:56.090Z,0
2017-02-14T00:39:56.090Z,0
2017-02-14T00:40:56.215Z,0
2017-02-14T00:41:56.071Z,0
2017-02-14T00:42:56.118Z,0
2017-02-14T00:43:56.081Z,0
2017-02-14T00:44:56.080Z,0
2017-02-14T00:45:56.062Z,0
2017-02-14T00:46:56.088Z,0
2017-02-14T00:47:56.086Z,0
2017-02-14T00:48:56.077Z,0
2017-02-14T00:49:56.161Z,0
2017-02-14T00:50:56.151Z,0
2017-02-14T00:51:56.132Z,0
2017-02-14T00:52:56.082Z,0
2017-02-14T00:53:56.123Z,0
2017-02-14T00:54:56.086Z,0
2017-02-14T00:55:56.129Z,0
2017-02-14T00:56:56.096Z,0
2017-02-14T00:57:56.108Z,0
2017-02-14T00:58:56.093Z,0
2017-02-14T00:59:56.101Z,0
2017-02-14T01:00:56.108Z,0
2017-02-14T01:01:56.088Z,0
2017-02-14T01:02:56.111Z,0
2017-02-14T01:03:56.071Z,0
2017-02-14T01:04:56.119Z,0
2017-02-14T01:05:56.116Z,0
2017-02-14T01:06:56.124Z,0
2017-02-14T01:07:56.075Z,0
2017-02-14T01:08:56.091Z,0
2017-02-14T01:09:56.083Z,0
2017-02-14T01:10:56.117Z,0
2017-02-14T01:11:56.155Z,0
2017-02-14T01:12:56.102Z,0
2017-02-14T01:13:56.087Z,0
2017-02-14T01:14:56.128Z,0
2017-02-14T01:15:56.115Z,0
2017-02-14T01:16:56.110Z,0
2017-02-14T01:17:56.126Z,0
2017-02-14T01:18:56.122Z,0
2017-02-14T01:19:56.116Z,0
2017-02-14T01:20:56.136Z,0
2017-02-14T01:21:56.098Z,0
2017-02-14T01:22:56.131Z,0
2017-02-14T01:23:56.112Z,0
2017-02-14T01:24:56.123Z,0
2017-02-14T01:25:56.083Z,0
2017-02-14T01:26:56.104Z,0
2017-02-14T01:27:56.145Z,0
2017-02-14T01:28:56.100Z,0
2017-02-14T01:29:56.112Z,0
2017-02-14T01:30:56.129Z,0
2017-02-14T01:31:56.138Z,0
2017-02-14T01:32:56.147Z,0
2017-02-14T01:33:56.133Z,0
2017-02-14T01:34:56.147Z,0
2017-02-14T01:35:56.127Z,0
2017-02-14T01:36:56.099Z,0
2017-02-14T01:37:56.109Z,0
2017-02-14T01:38:56.152Z,0
2017-02-14T01:39:56.158Z,0
2017-02-14T01:40:56.170Z,0
2017-02-14T01:41:56.126Z,0
2017-02-14T01:42:56.111Z,0
2017-02-14T01:43:56.156Z,0
2017-02-14T01:44:56.116Z,0
2017-02-14T01:45:56.155Z,0
2017-02-14T01:46:56.133Z,0
2017-02-14T01:47:56.170Z,0
2017-02-14T01:48:56.122Z,0
2017-02-14T01:49:56.145Z,0
2017-02-14T01:50:56.327Z,0
2017-02-14T01:51:56.132Z,0
2017-02-14T01:52:56.138Z,0
2017-02-14T01:53:56.162Z,0
2017-02-14T01:54:56.147Z,0
2017-02-14T01:55:56.153Z,0
2017-02-14T01:56:56.171Z,0
2017-02-14T01:57:56.167Z,0
2017-02-14T01:58:56.155Z,0
2017-02-14T01:59:56.194Z,0
2017-02-14T02:00:56.207Z,0
2017-02-14T02:01:56.192Z,0
2017-02-14T02:02:56.177Z,0
2017-02-14T02:03:56.166Z,0
2017-02-14T02:04:56.164Z,0
2017-02-14T02:05:56.193Z,0
2017-02-14T02:06:56.180Z,0
2017-02-14T02:07:56.173Z,0
2017-02-14T02:08:56.147Z,0
2017-02-14T02:09:56.145Z,0
2017-02-14T02:10:56.160Z,0
2017-02-14T02:11:56.166Z,0
2017-02-14T02:12:56.218Z,0
2017-02-14T02:13:56.118Z,0
2017-02-14T02:14:56.131Z,0
2017-02-14T02:15:56.120Z,0
2017-02-14T02:16:56.154Z,0
2017-02-14T02:17:56.156Z,0
2017-02-14T02:18:56.145Z,0
2017-02-14T02:19:56.137Z,0
2017-02-14T02:20:56.120Z,0
2017-02-14T02:21:56.139Z,0
2017-02-14T02:22:56.158Z,0
2017-02-14T02:23:56.139Z,0
2017-02-14T02:24:56.151Z,0
2017-02-14T02:25:56.128Z,0
2017-02-14T02:26:56.119Z,0
2017-02-14T02:27:56.131Z,0
2017-02-14T02:28:56.148Z,0
2017-02-14T02:29:56.142Z,0
2017-02-14T02:30:56.140Z,0
2017-02-14T02:31:56.132Z,0
2017-02-14T02:32:56.190Z,0
2017-02-14T02:33:56.236Z,0
2017-02-14T02:34:56.156Z,0
2017-02-14T02:35:56.137Z,0
2017-02-14T02:36:56.143Z,0
2017-02-14T02:37:56.170Z,0
2017-02-14T02:38:56.157Z,0
2017-02-14T02:39:56.138Z,0
2017-02-14T02:40:56.161Z,0
2017-02-14T02:41:56.156Z,0
2017-02-14T02:42:56.150Z,0
2017-02-14T02:43:56.178Z,0
2017-02-14T02:44:56.160Z,0
2017-02-14T02:45:56.168Z,0
2017-02-14T02:46:56.150Z,0
2017-02-14T02:47:56.312Z,0
2017-02-14T02:48:56.158Z,0
2017-02-14T02:49:56.185Z,0
2017-02-14T02:50:56.182Z,0
2017-02-14T02:51:56.179Z,0
2017-02-14T02:52:56.162Z,0
2017-02-14T02:53:56.155Z,0
2017-02-14T02:54:56.154Z,0
2017-02-14T02:55:56.167Z,0
2017-02-14T02:56:56.163Z,0
2017-02-14T02:57:56.210Z,0
2017-02-14T02:58:56.171Z,0
2017-02-14T02:59:56.193Z,0
2017-02-14T03:00:56.181Z,0
2017-02-14T03:01:56.173Z,0
2017-02-14T03:02:57.235Z,0
2017-02-14T03:03:56.168Z,0
2017-02-14T03:04:56.201Z,0
2017-02-14T03:05:56.175Z,0
2017-02-14T03:06:56.174Z,0
2017-02-14T03:07:56.177Z,0
2017-02-14T03:08:56.201Z,0
2017-02-14T03:09:56.171Z,0
2017-02-14T03:10:56.194Z,0
2017-02-14T03:11:56.174Z,0
2017-02-14T03:12:56.221Z,0
2017-02-14T03:13:56.211Z,0
2017-02-14T03:14:56.169Z,0
2017-02-14T03:15:56.190Z,0
2017-02-14T03:16:56.217Z,0
2017-02-14T03:17:56.231Z,0
2017-02-14T03:18:56.150Z,0
2017-02-14T03:19:56.180Z,0
2017-02-14T03:20:56.198Z,0
2017-02-14T03:21:56.177Z,0
2017-02-14T03:22:56.170Z,0
2017-02-14T03:23:56.166Z,0
2017-02-14T03:24:56.152Z,0
2017-02-14T03:25:56.176Z,0
2017-02-14T03:26:56.188Z,0
2017-02-14T03:27:56.195Z,0
2017-02-14T03:28:56.223Z,0
2017-02-14T03:29:56.182Z,0
2017-02-14T03:30:56.185Z,0
2017-02-14T03:31:56.161Z,0
2017-02-14T03:32:56.191Z,0
2017-02-14T03:33:56.210Z,0
2017-02-14T03:34:56.185Z,0
2017-02-14T03:35:56.217Z,0
2017-02-14T03:36:56.195Z,0
2017-02-14T03:37:56.195Z,0
2017-02-14T03:38:56.220Z,0
2017-02-14T03:39:56.181Z,0
2017-02-14T03:40:56.186Z,0
2017-02-14T03:41:56.222Z,0
2017-02-14T03:42:56.216Z,0
2017-02-14T03:43:56.175Z,0
2017-02-14T03:44:56.196Z,0
2017-02-14T03:45:56.181Z,0
2017-02-14T03:46:56.216Z,0
2017-02-14T03:47:56.200Z,0
2017-02-14T03:48:56.190Z,0
2017-02-14T03:49:56.179Z,0
2017-02-14T03:50:56.184Z,0
2017-02-14T03:51:56.208Z,0
2017-02-14T03:52:56.217Z,0
2017-02-14T03:53:56.180Z,0
2017-02-14T03:54:56.235Z,0
2017-02-14T03:55:56.194Z,0
2017-02-14T03:56:56.192Z,0
2017-02-14T03:57:56.199Z,0
2017-02-14T03:58:56.211Z,0
2017-02-14T03:59:56.205Z,0
2017-02-14T04:00:56.253Z,0
2017-02-14T04:01:56.199Z,0
2017-02-14T04:02:56.190Z,0
2017-02-14T04:03:56.192Z,0
2017-02-14T04:04:56.182Z,0
2017-02-14T04:05:56.221Z,0
2017-02-14T04:06:56.204Z,0
2017-02-14T04:07:56.205Z,0
2017-02-14T04:08:56.186Z,0
2017-02-14T04:09:56.210Z,0
2017-02-14T04:10:56.211Z,0
2017-02-14T04:11:56.206Z,0
2017-02-14T04:12:56.211Z,0
2017-02-14T04:13:56.225Z,0
2017-02-14T04:14:56.223Z,0
2017-02-14T04:15:56.246Z,0
2017-02-14T04:16:56.197Z,0
2017-02-14T04:17:56.239Z,0
2017-02-14T04:18:56.201Z,0
2017-02-14T04:19:56.222Z,0
2017-02-14T04:20:56.207Z,0
2017-02-14T04:21:56.193Z,0
2017-02-14T04:22:56.721Z,0
2017-02-14T04:23:56.184Z,0
2017-02-14T04:24:56.212Z,0
2017-02-14T04:25:56.204Z,0
2017-02-14T04:26:56.238Z,0
2017-02-14T04:27:56.210Z,0
2017-02-14T04:28:56.218Z,0
2017-02-14T04:29:56.211Z,0
2017-02-14T04:30:56.221Z,0
2017-02-14T04:31:56.246Z,0
2017-02-14T04:32:56.224Z,0
2017-02-14T04:33:56.219Z,0
2017-02-14T04:34:56.224Z,0
2017-02-14T04:35:56.231Z,0
2017-02-14T04:36:56.236Z,0
2017-02-14T04:37:56.278Z,0
2017-02-14T04:38:56.203Z,0
2017-02-14T04:39:56.201Z,0
2017-02-14T04:40:56.222Z,0
2017-02-14T04:41:56.232Z,0
2017-02-14T04:42:56.235Z,0
2017-02-14T04:43:56.239Z,0
2017-02-14T04:44:56.231Z,0
2017-02-14T04:45:56.272Z,0
2017-02-14T04:46:56.268Z,0
2017-02-14T04:47:56.265Z,0
2017-02-14T04:48:56.231Z,0
2017-02-14T04:49:56.240Z,0
2017-02-14T04:50:56.218Z,0
2017-02-14T04:51:56.263Z,0
2017-02-14T04:52:56.237Z,0
2017-02-14T04:53:56.236Z,0
2017-02-14T04:54:56.257Z,0
2017-02-14T04:55:56.258Z,0
2017-02-14T04:56:56.250Z,0
2017-02-14T04:57:56.261Z,0
2017-02-14T04:58:56.269Z,0
2017-02-14T04:59:56.249Z,0
2017-02-14T05:00:56.219Z,0
2017-02-14T05:01:56.232Z,0
2017-02-14T05:02:56.542Z,0
2017-02-14T05:03:56.242Z,0
2017-02-14T05:04:56.227Z,0
2017-02-14T05:05:56.241Z,0
2017-02-14T05:06:56.261Z,0
2017-02-14T05:07:56.214Z,0
2017-02-14T05:08:56.243Z,0
2017-02-14T05:09:56.247Z,0
2017-02-14T05:10:56.266Z,0
2017-02-14T05:11:56.260Z,0
2017-02-14T05:12:56.256Z,0
2017-02-14T05:13:56.264Z,0
2017-02-14T05:14:56.253Z,0
2017-02-14T05:15:56.255Z,0
2017-02-14T05:16:56.273Z,0
2017-02-14T05:17:56.252Z,0
2017-02-14T05:18:56.281Z,0
2017-02-14T05:19:56.256Z,0
2017-02-14T05:20:56.266Z,0
2017-02-14T05:21:56.258Z,0
2017-02-14T05:22:56.263Z,0
2017-02-14T05:23:56.278Z,0
2017-02-14T05:24:56.246Z,0
2017-02-14T05:25:56.261Z,0
2017-02-14T05:26:56.291Z,0
2017-02-14T05:27:56.244Z,0
2017-02-14T05:28:56.265Z,0
2017-02-14T05:29:56.252Z,0
2017-02-14T05:30:56.294Z,0
2017-02-14T05:31:56.284Z,0
2017-02-14T05:32:56.276Z,0
2017-02-14T05:33:56.269Z,0
2017-02-14T05:34:56.314Z,0
2017-02-14T05:35:56.281Z,0
2017-02-14T05:36:56.278Z,0
2017-02-14T05:37:56.255Z,0
2017-02-14T05:38:56.251Z,0
2017-02-14T05:39:56.256Z,0
2017-02-14T05:40:56.330Z,0
2017-02-14T05:41:56.291Z,0
2017-02-14T05:42:56.325Z,0
2017-02-14T05:43:56.335Z,0
2017-02-14T05:44:56.294Z,0
2017-02-14T05:45:56.275Z,0
2017-02-14T05:46:56.281Z,0
2017-02-14T05:47:56.318Z,0
2017-02-14T05:48:56.304Z,0
2017-02-14T05:49:56.281Z,0
2017-02-14T05:50:56.298Z,0
2017-02-14T05:51:56.262Z,0
2017-02-14T05:52:56.265Z,0
2017-02-14T05:53:56.275Z,0
2017-02-14T05:54:56.266Z,0
2017-02-14T05:55:56.248Z,0
2017-02-14T05:56:56.277Z,0
2017-02-14T05:57:56.262Z,0
2017-02-14T05:58:56.278Z,0
2017-02-14T05:59:56.270Z,0
2017-02-14T06:00:56.285Z,0
2017-02-14T06:01:56.284Z,0
2017-02-14T06:02:56.284Z,0
2017-02-14T06:03:56.306Z,0
2017-02-14T06:04:56.297Z,0
2017-02-14T06:05:56.256Z,0
2017-02-14T06:06:56.249Z,0
2017-02-14T06:07:56.287Z,0
2017-02-14T06:08:56.294Z,0
2017-02-14T06:09:56.275Z,0
2017-02-14T06:10:56.270Z,0
2017-02-14T06:11:56.270Z,0
2017-02-14T06:12:56.339Z,0
2017-02-14T06:13:56.300Z,0
2017-02-14T06:14:56.323Z,0
2017-02-14T06:15:56.283Z,0
2017-02-14T06:16:56.321Z,0
2017-02-14T06:17:56.291Z,0
2017-02-14T06:18:56.281Z,0
2017-02-14T06:19:56.310Z,0
2017-02-14T06:20:56.284Z,0
2017-02-14T06:21:56.327Z,0
2017-02-14T06:22:56.304Z,0
2017-02-14T06:23:56.327Z,0
2017-02-14T06:24:56.313Z,0
2017-02-14T06:25:56.305Z,0
2017-02-14T06:26:56.294Z,0
2017-02-14T06:27:56.301Z,0
2017-02-14T06:28:56.284Z,0
2017-02-14T06:29:56.314Z,0
2017-02-14T06:30:56.321Z,0
2017-02-14T06:31:56.322Z,0
2017-02-14T06:32:56.276Z,0
2017-02-14T06:33:56.279Z,0
2017-02-14T06:34:57.565Z,0
2017-02-14T06:35:56.309Z,0
2017-02-14T06:36:56.319Z,0
2017-02-14T06:38:06.280Z,0
2017-02-14T06:39:06.168Z,0
2017-02-14T06:40:00.686Z,0
2017-02-14T06:41:06.886Z,5
2017-02-14T06:42:06.428Z,5
2017-02-14T06:43:01.171Z,5
2017-02-14T06:44:00.058Z,5
2017-02-14T06:45:05.044Z,5
2017-02-14T06:45:56.341Z,5
2017-02-14T06:46:56.305Z,5
2017-02-14T06:47:56.377Z,5
2017-02-14T06:48:56.316Z,10
2017-02-14T06:49:56.340Z,10
2017-02-14T06:50:56.327Z,10
2017-02-14T06:51:56.301Z,10
2017-02-14T06:52:56.319Z,10
2017-02-14T06:53:56.297Z,10
2017-02-14T06:54:56.316Z,15
2017-02-14T06:55:56.349Z,15
2017-02-14T06:56:56.307Z,15
2017-02-14T06:57:56.358Z,15
2017-02-14T06:58:56.330Z,15
2017-02-14T06:59:56.316Z,20
2017-02-14T07:00:56.300Z,20
2017-02-14T07:01:56.308Z,20
2017-02-14T07:02:56.346Z,20
2017-02-14T07:03:56.338Z,25
2017-02-14T07:04:56.398Z,25
2017-02-14T07:05:56.326Z,25
2017-02-14T07:06:56.353Z,25
2017-02-14T07:07:56.322Z,25
2017-02-14T07:08:56.318Z,30
2017-02-14T07:09:56.323Z,30
2017-02-14T07:10:56.289Z,30
2017-02-14T07:11:56.284Z,30
2017-02-14T07:12:56.315Z,30
2017-02-14T07:13:56.356Z,35
2017-02-14T07:14:56.325Z,35
2017-02-14T07:15:56.344Z,35
2017-02-14T07:16:56.312Z,35
2017-02-14T07:17:56.308Z,40
2017-02-14T07:18:56.314Z,40
2017-02-14T07:19:56.327Z,40
2017-02-14T07:20:56.340Z,40
2017-02-14T07:21:56.341Z,40
2017-02-14T07:22:56.316Z,45
2017-02-14T07:23:56.313Z,45
2017-02-14T07:24:56.316Z,45
2017-02-14T07:25:56.322Z,45
2017-02-14T07:26:56.335Z,50
2017-02-14T07:27:56.328Z,50
2017-02-14T07:28:56.335Z,50
2017-02-14T07:29:56.369Z,50
2017-02-14T07:30:56.344Z,50
2017-02-14T07:31:56.324Z,55
2017-02-14T07:32:56.345Z,55
2017-02-14T07:33:56.342Z,55
2017-02-14T07:34:56.342Z,55
2017-02-14T07:35:56.344Z,55
2017-02-14T07:36:56.338Z,60
2017-02-14T07:37:56.341Z,60
2017-02-14T07:38:56.368Z,65
2017-02-14T07:39:56.337Z,65
2017-02-14T07:40:56.359Z,65
2017-02-14T07:41:57.066Z,70
2017-02-14T07:42:56.338Z,70
2017-02-14T07:43:56.347Z,70
2017-02-14T07:44:56.332Z,70
2017-02-14T07:45:56.323Z,65
2017-02-14T07:46:56.360Z,70
2017-02-14T07:47:56.345Z,70
2017-02-14T07:48:56.345Z,70
2017-02-14T07:49:56.329Z,70
2017-02-14T07:50:56.348Z,70
2017-02-14T07:51:56.349Z,70
2017-02-14T07:52:56.367Z,70
2017-02-14T07:53:56.333Z,70
2017-02-14T07:54:56.381Z,75
2017-02-14T07:55:56.323Z,75
2017-02-14T07:56:56.329Z,75
2017-02-14T07:57:56.342Z,75
2017-02-14T07:58:56.361Z,75
2017-02-14T07:59:56.361Z,75
2017-02-14T08:00:56.357Z,80
2017-02-14T08:01:56.354Z,80
2017-02-14T08:02:56.377Z,80
2017-02-14T08:03:56.362Z,80
2017-02-14T08:04:56.370Z,80
2017-02-14T08:05:56.406Z,80
2017-02-14T08:06:56.354Z,80
2017-02-14T08:07:56.365Z,80
2017-02-14T08:08:56.345Z,85
2017-02-14T08:09:56.349Z,85
2017-02-14T08:10:56.391Z,85
2017-02-14T08:11:56.367Z,85
2017-02-14T08:12:56.328Z,85
2017-02-14T08:13:56.365Z,85
2017-02-14T08:14:56.384Z,85
2017-02-14T08:15:56.367Z,85
2017-02-14T08:16:56.389Z,85
2017-02-14T08:17:56.349Z,90
2017-02-14T08:18:56.353Z,90
2017-02-14T08:19:56.389Z,90
2017-02-14T08:20:56.359Z,90
2017-02-14T08:21:56.396Z,90
2017-02-14T08:22:56.375Z,90
2017-02-14T08:23:56.396Z,90
2017-02-14T08:24:56.412Z,90
2017-02-14T08:25:56.384Z,90
2017-02-14T08:26:56.450Z,95
2017-02-14T08:27:56.408Z,95
2017-02-14T08:28:56.379Z,95
2017-02-14T08:29:56.392Z,95
2017-02-14T08:30:56.404Z,95
2017-02-14T08:31:56.510Z,95
2017-02-14T08:32:56.400Z,95
2017-02-14T08:33:56.392Z,95
2017-02-14T08:34:56.388Z,95
2017-02-14T08:35:56.452Z,95
2017-02-14T08:36:56.371Z,95
2017-02-14T08:37:56.368Z,95
2017-02-14T08:38:56.375Z,95
2017-02-14T08:39:56.389Z,100
2017-02-14T08:40:56.397Z,100
2017-02-14T08:41:56.373Z,100
2017-02-14T08:42:56.429Z,100
2017-02-14T08:43:56.499Z,100
2017-02-14T08:44:56.693Z,100
2017-02-14T08:45:56.369Z,100
2017-02-14T08:46:56.368Z,100
2017-02-14T08:47:56.384Z,100
2017-02-14T08:48:56.508Z,100
2017-02-14T08:49:56.392Z,100
2017-02-14T08:50:56.419Z,100
2017-02-14T08:51:56.389Z,100
2017-02-14T08:52:56.400Z,100
2017-02-14T08:53:56.400Z,105
2017-02-14T08:54:56.470Z,105
2017-02-14T08:55:56.406Z,105
2017-02-14T08:56:56.368Z,105
2017-02-14T08:57:56.421Z,105
2017-02-14T08:58:56.385Z,105
2017-02-14T08:59:56.392Z,105
2017-02-14T09:00:56.422Z,105
2017-02-14T09:01:56.418Z,105
2017-02-14T09:02:56.411Z,105
2017-02-14T09:03:56.466Z,105
2017-02-14T09:04:56.412Z,105
2017-02-14T09:05:56.394Z,105
2017-02-14T09:06:56.409Z,105
2017-02-14T09:07:56.420Z,105
2017-02-14T09:08:56.403Z,105
2017-02-14T09:09:56.444Z,105
2017-02-14T09:10:56.381Z,105
2017-02-14T09:11:56.378Z,105
2017-02-14T09:12:56.419Z,105
2017-02-14T09:13:56.410Z,105
2017-02-14T09:14:56.388Z,110
2017-02-14T09:15:56.404Z,110
2017-02-14T09:16:56.392Z,110
2017-02-14T09:17:56.440Z,110
2017-02-14T09:18:56.489Z,110
2017-02-14T09:19:56.394Z,110
2017-02-14T09:20:56.462Z,110
2017-02-14T09:21:56.444Z,110
2017-02-14T09:22:56.500Z,110
2017-02-14T09:23:56.465Z,110
2017-02-14T09:24:56.457Z,110
2017-02-14T09:25:56.455Z,110
2017-02-14T09:26:56.487Z,110
2017-02-14T09:27:56.462Z,110
2017-02-14T09:28:56.439Z,110
2017-02-14T09:29:56.462Z,110
2017-02-14T09:30:56.414Z,110
2017-02-14T09:31:56.464Z,105
2017-02-14T09:32:56.451Z,105
2017-02-14T09:33:56.452Z,105
2017-02-14T09:34:56.613Z,105
2017-02-14T09:35:56.516Z,105
2017-02-14T09:36:56.462Z,110
2017-02-14T09:37:56.424Z,105
2017-02-14T09:38:56.475Z,105
2017-02-14T09:39:56.409Z,105
2017-02-14T09:40:56.443Z,105
2017-02-14T09:41:56.807Z,105
2017-02-14T09:42:56.658Z,105
2017-02-14T09:43:56.544Z,110
2017-02-14T09:44:56.776Z,105
2017-02-14T09:45:56.575Z,110
2017-02-14T09:46:56.867Z,110
2017-02-14T09:47:56.509Z,110
2017-02-14T09:48:56.661Z,110
2017-02-14T09:49:56.430Z,110
2017-02-14T09:50:56.553Z,110
2017-02-14T09:51:56.414Z,110
2017-02-14T09:52:56.414Z,110
2017-02-14T09:53:56.743Z,110
2017-02-14T09:54:56.508Z,110
2017-02-14T09:55:56.621Z,110
2017-02-14T09:56:56.618Z,110
2017-02-14T09:57:56.532Z,110
2017-02-14T09:58:56.480Z,110
2017-02-14T09:59:56.538Z,110
2017-02-14T10:00:56.470Z,110
2017-02-14T10:01:56.563Z,110
2017-02-14T10:02:57.302Z,110
2017-02-14T10:03:56.505Z,110
2017-02-14T10:04:56.425Z,110
2017-02-14T10:05:56.495Z,110
2017-02-14T10:06:56.625Z,110
2017-02-14T10:07:56.470Z,110
2017-02-14T10:08:56.491Z,110
2017-02-14T10:09:56.453Z,110
2017-02-14T10:10:56.441Z,110
2017-02-14T10:11:56.513Z,105
2017-02-14T10:12:56.475Z,105
2017-02-14T10:13:56.452Z,105
2017-02-14T10:14:56.464Z,105
2017-02-14T10:15:56.464Z,105
2017-02-14T10:16:56.441Z,105
2017-02-14T10:17:56.446Z,105
2017-02-14T10:18:56.464Z,105
2017-02-14T10:19:56.489Z,110
2017-02-14T10:20:57.389Z,110
2017-02-14T10:21:56.530Z,110
2017-02-14T10:22:56.445Z,110
2017-02-14T10:23:56.439Z,110
2017-02-14T10:24:56.470Z,110
2017-02-14T10:25:56.484Z,110
2017-02-14T10:26:56.569Z,115
2017-02-14T10:27:56.441Z,110
2017-02-14T10:28:56.447Z,110
2017-02-14T10:29:56.450Z,110
2017-02-14T10:30:56.428Z,115
2017-02-14T10:31:56.456Z,115
2017-02-14T10:32:56.449Z,110
2017-02-14T10:33:56.451Z,115
2017-02-14T10:35:00.258Z,115
2017-02-14T10:35:56.517Z,115
2017-02-14T10:36:56.466Z,110
2017-02-14T10:37:56.471Z,115
2017-02-14T10:38:56.481Z,115
2017-02-14T10:39:56.480Z,115
2017-02-14T10:40:56.593Z,115
2017-02-14T10:41:56.472Z,115
2017-02-14T10:42:56.498Z,115
2017-02-14T10:43:56.490Z,115
2017-02-14T10:44:56.486Z,115
2017-02-14T10:45:56.466Z,115
2017-02-14T10:46:56.553Z,115
2017-02-14T10:47:56.559Z,115
2017-02-14T10:48:56.480Z,115
2017-02-14T10:49:56.485Z,115
2017-02-14T10:50:56.463Z,115
2017-02-14T10:51:56.488Z,115
2017-02-14T10:52:56.527Z,115
2017-02-14T10:53:56.610Z,115
2017-02-14T10:54:56.857Z,115
2017-02-14T10:55:56.492Z,115
2017-02-14T10:56:56.502Z,115
2017-02-14T10:57:56.482Z,115
2017-02-14T10:58:56.983Z,115
2017-02-14T10:59:56.588Z,115
2017-02-14T11:00:56.614Z,115
2017-02-14T11:01:56.574Z,115
2017-02-14T11:02:56.502Z,115
2017-02-14T11:03:56.777Z,115
2017-02-14T11:04:56.473Z,115
2017-02-14T11:05:56.604Z,115
2017-02-14T11:06:56.718Z,115
2017-02-14T11:07:56.640Z,115
2017-02-14T11:08:56.462Z,115
2017-02-14T11:09:56.477Z,115
2017-02-14T11:10:56.517Z,115
2017-02-14T11:11:56.472Z,115
2017-02-14T11:12:56.500Z,115
2017-02-14T11:13:56.618Z,115
2017-02-14T11:14:56.536Z,115
2017-02-14T11:15:56.521Z,115
2017-02-14T11:16:56.693Z,115
2017-02-14T11:17:56.549Z,115
2017-02-14T11:18:56.534Z,115
2017-02-14T11:19:56.516Z,115
2017-02-14T11:20:56.973Z,120
2017-02-14T11:21:56.578Z,115
2017-02-14T11:22:56.626Z,115
2017-02-14T11:23:56.531Z,115
2017-02-14T11:24:56.517Z,115
2017-02-14T11:25:56.496Z,115
2017-02-14T11:26:56.487Z,115
2017-02-14T11:27:57.087Z,115
2017-02-14T11:28:56.589Z,115
2017-02-14T11:29:56.521Z,115
2017-02-14T11:30:56.524Z,115
2017-02-14T11:31:56.517Z,115
2017-02-14T11:32:58.146Z,115
2017-02-14T11:33:56.543Z,115
2017-02-14T11:34:56.524Z,115
2017-02-14T11:35:56.506Z,115
2017-02-14T11:36:56.514Z,115
2017-02-14T11:37:56.507Z,115
2017-02-14T11:38:56.690Z,115
2017-02-14T11:39:56.561Z,115
2017-02-14T11:40:56.517Z,115
2017-02-14T11:41:56.528Z,115
2017-02-14T11:42:56.531Z,115
2017-02-14T11:43:56.511Z,115
2017-02-14T11:44:56.594Z,115
2017-02-14T11:45:56.523Z,115
2017-02-14T11:46:58.210Z,115
2017-02-14T11:47:56.543Z,115
2017-02-14T11:48:56.532Z,115
2017-02-14T11:49:56.879Z,115
2017-02-14T11:50:56.575Z,115
2017-02-14T11:51:56.549Z,115
2017-02-14T11:52:56.575Z,115
2017-02-14T11:53:56.635Z,115
2017-02-14T11:54:56.561Z,115
2017-02-14T11:55:56.520Z,115
2017-02-14T11:56:56.557Z,115
2017-02-14T11:57:56.717Z,115
2017-02-14T11:58:56.517Z,115
2017-02-14T11:59:56.565Z,115
2017-02-14T12:00:56.526Z,115
2017-02-14T12:01:56.529Z,115
2017-02-14T12:02:56.564Z,115
2017-02-14T12:03:56.533Z,115
2017-02-14T12:04:56.523Z,115
2017-02-14T12:05:56.535Z,115
2017-02-14T12:06:56.512Z,115
2017-02-14T12:07:56.545Z,115
2017-02-14T12:08:56.514Z,115
2017-02-14T12:09:56.533Z,115
2017-02-14T12:10:56.501Z,115
2017-02-14T12:11:56.500Z,115
2017-02-14T12:12:56.536Z,115
2017-02-14T12:13:56.527Z,115
2017-02-14T12:14:56.538Z,115
2017-02-14T12:15:56.543Z,115
2017-02-14T12:16:56.527Z,115
2017-02-14T12:17:56.524Z,115
2017-02-14T12:18:56.531Z,115
2017-02-14T12:19:56.530Z,115
2017-02-14T12:20:56.531Z,115
2017-02-14T12:21:56.560Z,115
2017-02-14T12:22:56.555Z,115
2017-02-14T12:23:56.524Z,115
2017-02-14T12:24:56.545Z,115
2017-02-14T12:25:56.532Z,115
2017-02-14T12:26:56.518Z,120
2017-02-14T12:27:56.554Z,115
2017-02-14T12:28:56.561Z,120
2017-02-14T12:29:56.551Z,115
2017-02-14T12:30:56.552Z,115
2017-02-14T12:31:56.553Z,115
2017-02-14T12:32:56.584Z,115
2017-02-14T12:33:56.558Z,115
2017-02-14T12:34:56.596Z,115
2017-02-14T12:35:56.565Z,115
2017-02-14T12:36:56.574Z,115
2017-02-14T12:37:56.553Z,115
2017-02-14T12:38:56.558Z,115
2017-02-14T12:39:56.561Z,115
2017-02-14T12:40:56.539Z,115
2017-02-14T12:41:56.564Z,115
2017-02-14T12:42:56.562Z,115
2017-02-14T12:43:56.529Z,115
2017-02-14T12:44:56.578Z,115
2017-02-14T12:45:56.568Z,115
2017-02-14T12:46:56.571Z,115
2017-02-14T12:47:56.575Z,115
2017-02-14T12:48:56.580Z,115
2017-02-14T12:49:56.585Z,120
2017-02-14T12:50:56.588Z,115
2017-02-14T12:51:56.553Z,115
2017-02-14T12:52:56.580Z,115
2017-02-14T12:53:56.551Z,115
2017-02-14T12:54:56.619Z,115
2017-02-14T12:55:56.539Z,110
2017-02-14T12:56:56.557Z,110
2017-02-14T12:57:56.552Z,110
2017-02-14T12:58:56.606Z,115
2017-02-14T12:59:56.544Z,110
2017-02-14T13:00:56.606Z,110
2017-02-14T13:01:56.588Z,115
2017-02-14T13:02:56.577Z,115
2017-02-14T13:03:56.612Z,110
2017-02-14T13:04:56.589Z,110
2017-02-14T13:05:56.583Z,115
2017-02-14T13:06:56.571Z,115
2017-02-14T13:07:56.583Z,110
2017-02-14T13:08:56.574Z,110
2017-02-14T13:09:56.596Z,110
2017-02-14T13:10:56.592Z,110
2017-02-14T13:11:56.608Z,110
2017-02-14T13:12:56.606Z,110
2017-02-14T13:13:56.577Z,110
2017-02-14T13:14:56.651Z,110
2017-02-14T13:15:56.605Z,110
2017-02-14T13:16:56.629Z,110
2017-02-14T13:37:02.698Z,0
2017-02-14T13:38:02.669Z,0
2017-02-14T13:39:02.686Z,0
2017-02-14T13:40:02.683Z,0
2017-02-14T13:41:02.716Z,0
2017-02-14T13:42:02.718Z,0
2017-02-14T13:43:02.767Z,0
2017-02-14T13:44:02.689Z,0
2017-02-14T13:45:02.725Z,0
2017-02-14T13:46:02.702Z,0
2017-02-14T13:47:02.695Z,0
2017-02-14T13:48:02.734Z,0
2017-02-14T13:50:56.324Z,0
2017-02-14T13:51:56.266Z,0
2017-02-14T13:52:56.260Z,0
2017-02-14T13:53:56.293Z,0
2017-02-14T13:55:59.982Z,0
2017-02-14T13:59:15.617Z,0
2017-02-14T14:01:12.596Z,0
2017-02-14T14:02:12.594Z,0
2017-02-14T14:15:44.154Z,105
2017-02-14T14:25:44.231Z,135
2017-02-14T14:35:44.195Z,100
2017-02-14T14:45:44.164Z,95
2017-02-14T14:55:44.120Z,90
2017-02-14T15:05:59.177Z,90
2017-02-14T15:26:17.887Z,80
2017-02-14T15:36:29.258Z,70
2017-02-14T15:46:06.404Z,65
2017-02-14T15:56:03.381Z,80
2017-02-14T16:06:12.598Z,40
2017-02-14T16:15:58.563Z,30
2017-02-14T16:26:01.033Z,20
2017-02-14T16:36:10.109Z,10
2017-02-14T16:56:06.672Z,0
2017-02-14T17:06:13.070Z,0
2017-02-14T18:56:12.967Z,0
2017-02-14T19:16:13.228Z,0
2017-02-14T19:36:36.843Z,0
2017-02-14T20:56:28.926Z,0
2017-02-14T21:16:20.966Z,0
2017-02-14T21:26:24.254Z,0
2017-02-14T22:25:44.087Z,0
2017-02-14T22:35:59.132Z,0
2017-02-14T22:45:48.494Z,0
2017-02-14T22:56:12.486Z,0
2017-02-14T23:05:54.712Z,0
2017-02-14T23:15:47.939Z,0
2017-02-14T23:25:44.101Z,0
2017-02-14T23:35:44.159Z,0
2017-02-14T23:45:44.070Z,0
2017-02-14T23:55:44.098Z,0
